Time;durP1;ratioP1;P1;durP2;ratioP2;P2;SDS_P1;SDS_P2;PMS_P1;PMS_P2;Temp;Humidity;BMP_temperature;BMP_pressure;BME280_temperature;BME280_humidity;BME280_pressure;Samples;Min_cycle;Max_cycle;Signal;HPM_P1;HPM_P2
2021/07/06 00:01:08;;;;;;;14.80;13.17;;;;;;;20.71;65.39;99668.83;126372;1093;102919;-77
2021/07/06 00:03:56;;;;;;;16.30;13.17;;;;;;;20.68;65.22;99673.55;126265;1092;114374;-77
2021/07/06 00:06:44;;;;;;;15.03;13.00;;;;;;;20.64;65.31;99677.40;126315;1093;102833;-77
2021/07/06 00:09:32;;;;;;;14.10;12.57;;;;;;;20.61;65.88;99672.36;126278;1092;114293;-77
2021/07/06 00:12:20;;;;;;;14.10;12.60;;;;;;;20.61;65.70;99669.70;126399;1092;102869;-77
2021/07/06 00:15:09;;;;;;;15.80;13.07;;;;;;;20.63;65.47;99673.06;126534;1092;113942;-77
2021/07/06 00:17:58;;;;;;;13.97;12.60;;;;;;;20.63;65.46;99676.55;126303;1093;102937;-76
2021/07/06 00:20:45;;;;;;;14.63;13.07;;;;;;;20.63;65.32;99678.37;126347;1093;102875;-76
2021/07/06 00:23:34;;;;;;;13.43;12.07;;;;;;;20.63;65.48;99678.37;126572;1092;102927;-76
2021/07/06 00:26:21;;;;;;;14.60;11.97;;;;;;;20.62;65.64;99684.63;126564;1092;102734;-77
2021/07/06 00:29:09;;;;;;;13.23;11.93;;;;;;;20.60;65.04;99686.58;126274;1093;114103;-77
2021/07/06 00:31:57;;;;;;;15.37;13.07;;;;;;;20.59;65.44;99690.19;126333;1093;102966;-77
2021/07/06 00:34:45;;;;;;;14.10;12.60;;;;;;;20.56;65.13;99690.45;126505;1093;114312;-77
2021/07/06 00:37:33;;;;;;;15.40;12.80;;;;;;;20.50;65.14;99690.00;126449;1093;102868;-77
2021/07/06 00:40:21;;;;;;;14.47;12.50;;;;;;;20.45;65.23;99689.51;126260;1092;114433;-77
2021/07/06 00:43:09;;;;;;;15.07;12.40;;;;;;;20.42;65.58;99689.77;126344;1092;102945;-77
2021/07/06 00:45:59;;;;;;;14.30;12.57;;;;;;;20.39;65.41;99689.98;126530;1093;114262;-77
2021/07/06 00:48:47;;;;;;;14.07;12.57;;;;;;;20.39;65.34;99684.69;126512;1092;102865;-77
2021/07/06 00:51:35;;;;;;;13.03;11.73;;;;;;;20.37;65.87;99691.92;126501;1092;115246;-77
2021/07/06 00:54:22;;;;;;;14.17;12.47;;;;;;;20.41;65.58;99697.84;126393;1091;102932;-77
2021/07/06 00:57:10;;;;;;;;;;;;;;;20.39;65.63;99700.58;126401;1093;102994;-76
2021/07/06 01:00:19;;;;;;;14.17;12.77;;;;;;;20.32;65.79;99699.41;126308;1092;102885;-76
2021/07/06 01:03:07;;;;;;;15.00;13.40;;;;;;;20.22;65.97;99704.59;126338;1092;103023;-77
2021/07/06 01:05:56;;;;;;;18.27;14.17;;;;;;;20.16;65.66;99704.27;126237;1093;114196;-77
2021/07/06 01:08:45;;;;;;;15.53;13.93;;;;;;;20.08;65.81;99704.86;126564;1093;102759;-77
2021/07/06 01:11:35;;;;;;;14.63;13.13;;;;;;;20.01;66.38;99705.48;126290;1092;114091;-77
2021/07/06 01:14:23;;;;;;;15.80;13.07;;;;;;;19.98;66.40;99701.28;126394;1092;103014;-77
2021/07/06 01:17:11;;;;;;;15.90;14.03;;;;;;;19.95;66.24;99705.98;126225;1092;114242;-76
2021/07/06 01:20:07;;;;;;;16.23;14.20;;;;;;;19.90;66.03;99707.16;126630;1093;102845;-76
2021/07/06 01:22:54;;;;;;;16.90;13.15;;;;;;;19.84;65.98;99699.72;126195;1093;114182;-77
2021/07/06 01:25:43;;;;;;;18.10;14.33;;;;;;;19.79;66.14;99711.64;126373;1093;102839;-76
2021/07/06 01:28:35;;;;;;;17.13;13.57;;;;;;;19.77;66.00;99703.83;126273;1093;114560;-77
2021/07/06 01:31:24;;;;;;;15.47;13.50;;;;;;;19.77;66.20;99710.92;126312;1092;103023;-77
2021/07/06 01:34:12;;;;;;;14.73;13.20;;;;;;;19.79;66.27;99701.05;126248;1092;114425;-77
2021/07/06 01:36:59;;;;;;;16.70;13.87;;;;;;;19.80;66.37;99706.22;126336;1092;102902;-77
2021/07/06 01:39:48;;;;;;;15.40;13.80;;;;;;;19.83;66.50;99705.14;126268;1092;113207;-77
2021/07/06 01:42:36;;;;;;;17.53;13.90;;;;;;;19.80;66.17;99706.22;126350;1091;103054;-77
2021/07/06 01:45:27;;;;;;;17.87;13.50;;;;;;;19.77;66.32;99701.18;126594;1093;102874;-77
2021/07/06 01:48:15;;;;;;;14.40;12.60;;;;;;;19.72;66.45;99708.61;126243;1093;114684;-77
2021/07/06 01:51:03;;;;;;;19.67;13.63;;;;;;;19.69;65.97;99705.38;126367;1092;102862;-77
2021/07/06 01:53:52;;;;;;;17.10;13.73;;;;;;;19.67;65.99;99715.23;126227;1093;114305;-77
2021/07/06 01:56:42;;;;;;;17.43;13.70;;;;;;;19.61;66.21;99711.28;126382;1092;104620;-77
2021/07/06 01:59:30;;;;;;;14.93;13.17;;;;;;;19.61;66.06;99708.63;126279;1092;114337;-77
2021/07/06 02:02:17;;;;;;;;;;;;;;;19.60;66.16;99706.95;126333;1093;102852;-76
2021/07/06 02:05:17;;;;;;;15.90;13.10;;;;;;;19.57;66.34;99707.20;126511;1092;102847;-76
2021/07/06 02:08:07;;;;;;;14.63;13.07;;;;;;;19.53;66.41;99718.91;126338;1092;103054;-76
2021/07/06 02:10:59;;;;;;;15.90;14.10;;;;;;;19.51;66.58;99723.48;126229;1093;114260;-76
2021/07/06 02:13:47;;;;;;;16.37;14.00;;;;;;;19.51;66.66;99728.78;126323;1092;102958;-77
2021/07/06 02:16:36;;;;;;;18.67;14.43;;;;;;;19.49;66.42;99733.34;126308;1092;114377;-77
2021/07/06 02:19:25;;;;;;;18.53;13.80;;;;;;;19.48;66.56;99734.31;126350;1092;103312;-77
2021/07/06 02:22:13;;;;;;;16.73;14.07;;;;;;;19.49;66.34;99735.99;126229;1091;114287;-77
2021/07/06 02:25:01;;;;;;;16.00;14.30;;;;;;;19.46;66.62;99726.50;126598;1093;103097;-76
2021/07/06 02:27:50;;;;;;;17.03;14.30;;;;;;;19.44;66.39;99730.22;126365;1093;103124;-77
2021/07/06 02:30:38;;;;;;;16.23;13.63;;;;;;;19.43;66.43;99736.47;126414;1092;103322;-77
2021/07/06 02:33:32;;;;;;;16.10;13.33;;;;;;;19.41;66.45;99739.23;126378;1092;102995;-77
2021/07/06 02:36:19;;;;;;;17.60;14.57;;;;;;;19.39;66.63;99740.28;126329;1093;114141;-77
2021/07/06 02:39:07;;;;;;;19.50;15.40;;;;;;;19.38;66.87;99743.89;126348;1093;103387;-77
2021/07/06 02:41:55;;;;;;;;;;;;;;;19.33;67.05;99747.73;126228;1092;114275;-77
2021/07/06 02:44:42;;;;;;;17.05;15.28;;;;;;;19.27;67.02;99748.22;126649;1093;102862;-77
2021/07/06 02:47:30;;;;;;;16.67;14.60;;;;;;;19.26;67.48;99751.82;126249;1093;113913;-77
2021/07/06 02:50:20;;;;;;;18.30;14.90;;;;;;;19.26;67.35;99754.47;126364;1092;102856;-78
2021/07/06 02:53:10;;;;;;;16.93;14.87;;;;;;;19.26;67.12;99751.82;126318;1093;114238;-78
2021/07/06 02:55:58;;;;;;;17.37;15.43;;;;;;;19.23;67.31;99762.63;126275;1093;103032;-78
2021/07/06 02:58:46;;;;;;;18.20;15.57;;;;;;;19.24;67.66;99771.41;126314;1093;114203;-77
2021/07/06 03:01:34;;;;;;;19.47;16.10;;;;;;;19.25;67.38;99766.00;126404;1092;102994;-77
2021/07/06 03:04:22;;;;;;;18.03;15.40;;;;;;;19.25;67.48;99763.36;126267;1093;114493;-77
2021/07/06 03:07:11;;;;;;;17.70;15.63;;;;;;;19.31;67.54;99760.23;126379;1091;102895;-78
2021/07/06 03:10:04;;;;;;;17.37;15.47;;;;;;;19.39;67.54;99759.67;126261;1092;102991;-78
2021/07/06 03:12:53;;;;;;;16.97;15.20;;;;;;;19.44;67.37;99754.86;126219;1091;114137;-78
2021/07/06 03:15:41;;;;;;;17.17;15.23;;;;;;;19.47;67.13;99762.56;126346;1093;102876;-77
2021/07/06 03:18:29;;;;;;;18.13;15.80;;;;;;;19.49;67.11;99760.64;126372;1091;113620;-78
2021/07/06 03:21:16;;;;;;;17.20;15.10;;;;;;;19.53;66.85;99763.88;126556;1093;102920;-78
2021/07/06 03:24:04;;;;;;;;;;;;;;;19.58;66.81;99767.07;126230;1092;114404;-78
2021/07/06 03:26:51;;;;;;;18.53;15.83;;;;;;;19.60;66.79;99771.28;126367;1092;102647;-78
2021/07/06 03:29:39;;;;;;;19.90;17.20;;;;;;;19.62;66.71;99768.52;126241;1093;114399;-77
2021/07/06 03:32:27;;;;;;;18.03;16.20;;;;;;;19.68;66.62;99775.97;126377;1092;103009;-77
2021/07/06 03:35:16;;;;;;;16.07;14.37;;;;;;;19.69;66.50;99780.30;126219;1092;114983;-77
2021/07/06 03:38:04;;;;;;;17.80;14.97;;;;;;;19.78;66.68;99787.53;126372;1092;102967;-77
2021/07/06 03:40:53;;;;;;;16.47;14.67;;;;;;;19.86;66.22;99781.63;126243;1092;114275;-78
2021/07/06 03:43:41;;;;;;;20.73;16.03;;;;;;;19.97;66.03;99781.65;126373;1092;102868;-78
2021/07/06 03:46:29;;;;;;;18.47;15.47;;;;;;;20.02;65.81;99787.41;126306;1093;114437;-78
2021/07/06 03:49:17;;;;;;;17.80;15.93;;;;;;;20.06;66.05;99788.02;126393;1092;102844;-78
2021/07/06 03:52:05;;;;;;;17.17;15.07;;;;;;;20.12;65.51;99783.09;126302;1093;102855;-78
2021/07/06 03:54:53;;;;;;;16.40;14.43;;;;;;;20.16;65.71;99791.63;126242;1092;114045;-78
2021/07/06 03:57:43;;;;;;;18.03;14.03;;;;;;;20.20;65.51;99795.72;126601;1093;102861;-78
2021/07/06 04:00:32;;;;;;;17.37;15.17;;;;;;;20.22;64.95;99793.78;126270;1092;114132;-78
2021/07/06 04:03:24;;;;;;;17.73;15.30;;;;;;;20.29;64.92;99805.59;126365;1093;103031;-78
2021/07/06 04:06:16;;;;;;;21.63;16.07;;;;;;;20.34;64.80;99808.71;126413;1092;114167;-78
2021/07/06 04:09:03;;;;;;;;;;;;;;;20.32;64.74;99807.16;126408;1092;102856;-78
2021/07/06 04:11:52;;;;;;;19.20;15.20;;;;;;;20.30;64.64;99809.09;126533;1092;102923;-78
2021/07/06 04:14:41;;;;;;;20.07;16.10;;;;;;;20.29;64.60;99807.37;126332;1093;103121;-78
2021/07/06 04:17:29;;;;;;;18.87;15.23;;;;;;;20.30;65.14;99817.88;126231;1092;114170;-78
2021/07/06 04:20:18;;;;;;;17.10;15.25;;;;;;;20.31;65.20;99813.41;126322;1093;103050;-78
2021/07/06 04:23:09;;;;;;;17.47;15.67;;;;;;;20.32;64.83;99813.29;126225;1092;114450;-78
2021/07/06 04:25:57;;;;;;;19.10;15.17;;;;;;;20.39;64.89;99819.77;126330;1092;103802;-78
2021/07/06 04:28:44;;;;;;;;;;;;;;;20.47;64.70;99809.45;126262;1093;114392;-79
2021/07/06 04:31:32;;;;;;;17.05;14.88;;;;;;;20.56;64.74;99814.97;126348;1092;102857;-78
2021/07/06 04:34:22;;;;;;;17.10;15.30;;;;;;;20.66;64.30;99814.12;126350;1092;103019;-78
2021/07/06 04:37:10;;;;;;;21.87;15.73;;;;;;;20.75;64.34;99817.81;126229;1092;114262;-79
2021/07/06 04:39:59;;;;;;;19.07;15.40;;;;;;;20.84;64.20;99813.59;126342;1093;102890;-78
2021/07/06 04:42:47;;;;;;;17.77;13.47;;;;;;;20.88;63.68;99818.52;126517;1092;114095;-78
2021/07/06 04:45:37;;;;;;;15.57;13.87;;;;;;;20.99;64.15;99826.41;126632;1091;103010;-78
2021/07/06 04:48:26;;;;;;;16.87;15.00;;;;;;;21.10;63.39;99826.38;126169;1092;114273;-78
2021/07/06 04:51:15;;;;;;;15.77;13.93;;;;;;;21.22;63.64;99826.34;126353;1093;102946;-78
2021/07/06 04:54:02;;;;;;;15.30;13.70;;;;;;;21.34;63.30;99836.78;126340;1092;114164;-78
2021/07/06 04:56:55;;;;;;;15.80;14.10;;;;;;;21.48;63.29;99835.64;126459;1092;102875;-78
2021/07/06 04:59:43;;;;;;;15.47;13.87;;;;;;;21.61;62.77;99833.64;126297;1093;114124;-78
2021/07/06 05:02:32;;;;;;;15.00;13.50;;;;;;;21.74;62.95;99843.23;126323;1092;103507;-78
2021/07/06 05:05:19;;;;;;;18.93;13.03;;;;;;;21.88;62.49;99834.91;126263;1093;114474;-78
2021/07/06 05:08:11;;;;;;;14.17;12.73;;;;;;;22.03;62.26;99834.44;126312;1093;103319;-78
2021/07/06 05:11:00;;;;;;;13.97;12.43;;;;;;;22.16;61.44;99839.58;126240;1092;114277;-78
2021/07/06 05:13:50;;;;;;;12.90;11.60;;;;;;;22.33;61.52;99831.95;126338;1092;102859;-78
2021/07/06 05:16:38;;;;;;;12.87;11.30;;;;;;;22.51;60.99;99832.99;126548;1093;103031;-79
2021/07/06 05:19:26;;;;;;;14.03;11.10;;;;;;;22.71;60.70;99837.38;126266;1092;112796;-78
2021/07/06 05:22:15;;;;;;;11.83;10.60;;;;;;;22.98;60.53;99846.54;126474;1092;105701;-79
2021/07/06 05:25:04;;;;;;;13.50;11.20;;;;;;;23.24;60.06;99839.71;126248;1092;114289;-79
2021/07/06 05:27:51;;;;;;;12.97;11.07;;;;;;;23.51;59.45;99845.15;126398;1093;108197;-78
2021/07/06 05:30:39;;;;;;;;;;;;;;;23.82;58.80;99839.67;126276;1093;114276;-79
2021/07/06 05:33:27;;;;;;;10.70;9.68;;;;;;;24.06;58.23;99839.20;126354;1093;102868;-79
2021/07/06 05:36:14;;;;;;;10.03;9.03;;;;;;;24.36;57.68;99841.63;126255;1092;113930;-79
2021/07/06 05:39:02;;;;;;;10.40;9.27;;;;;;;24.60;56.44;99838.44;126353;1093;102846;-79
2021/07/06 05:41:50;;;;;;;10.07;9.00;;;;;;;24.93;56.44;99838.77;126265;1093;114232;-79
2021/07/06 05:44:39;;;;;;;11.40;8.03;;;;;;;25.21;55.85;99848.43;126480;1092;102728;-78
2021/07/06 05:47:27;;;;;;;9.80;8.80;;;;;;;25.54;55.18;99840.70;126306;1093;114138;-79
2021/07/06 05:50:16;;;;;;;8.85;8.00;;;;;;;25.92;54.57;99846.68;126358;1092;103409;-79
2021/07/06 05:53:04;;;;;;;10.13;8.53;;;;;;;26.41;54.61;99842.47;126354;1092;102877;-79
2021/07/06 05:55:52;;;;;;;9.13;7.83;;;;;;;27.16;53.59;99847.89;126310;1093;102993;-79
2021/07/06 05:58:40;;;;;;;11.53;7.67;;;;;;;28.43;52.76;99840.06;126249;1093;103044;-79
2021/07/06 06:01:31;;;;;;;10.53;7.03;;;;;;;30.30;49.47;99836.79;126328;1092;113934;-79
2021/07/06 06:04:19;;;;;;;8.10;7.30;;;;;;;32.12;46.42;99843.61;126614;1093;102876;-79
2021/07/06 06:07:07;;;;;;;8.27;6.27;;;;;;;33.65;43.99;99833.13;126171;1092;113850;-79
2021/07/06 06:09:55;;;;;;;8.17;6.50;;;;;;;35.16;41.94;99840.98;126630;1092;102978;-79
2021/07/06 06:12:43;;;;;;;6.57;5.97;;;;;;;36.41;39.57;99839.06;126207;1092;113152;-79
2021/07/06 06:15:31;;;;;;;6.37;5.63;;;;;;;37.61;37.32;99833.60;126440;1092;103018;-79
2021/07/06 06:18:19;;;;;;;6.60;5.50;;;;;;;38.46;35.67;99840.45;126301;1092;113797;-78
2021/07/06 06:21:06;;;;;;;5.90;5.30;;;;;;;39.28;34.15;99836.31;126409;1092;102914;-79
2021/07/06 06:23:54;;;;;;;6.30;5.70;;;;;;;40.03;33.30;99840.52;126165;1092;113935;-77
2021/07/06 06:26:43;;;;;;;6.63;5.57;;;;;;;40.59;31.81;99843.20;126380;1092;103119;-78
2021/07/06 06:29:30;;;;;;;5.90;5.30;;;;;;;41.17;30.32;99834.25;126316;1093;102971;-77
2021/07/06 06:32:17;;;;;;;5.77;5.17;;;;;;;41.64;29.80;99841.75;126393;1092;102949;-79
2021/07/06 06:35:07;;;;;;;5.40;4.70;;;;;;;42.11;29.27;99843.75;126417;1093;101120;-78
2021/07/06 06:37:54;;;;;;;6.40;4.73;;;;;;;42.45;27.79;99842.26;126236;1093;113786;-78
2021/07/06 06:40:42;;;;;;;5.63;5.10;;;;;;;42.93;26.98;99840.27;126615;1091;103370;-78
2021/07/06 06:43:30;;;;;;;4.93;4.47;;;;;;;43.18;26.63;99838.63;126295;1092;113807;-78
2021/07/06 06:46:19;;;;;;;4.97;4.40;;;;;;;43.69;26.12;99840.31;126353;1093;102895;-78
2021/07/06 06:49:08;;;;;;;4.67;4.27;;;;;;;44.21;25.54;99844.59;126256;1093;113826;-78
2021/07/06 06:51:56;;;;;;;5.13;4.30;;;;;;;44.65;25.07;99849.36;126241;1092;102884;-78
2021/07/06 06:54:43;;;;;;;5.37;4.47;;;;;;;44.97;23.91;99854.42;126191;1092;114201;-78
2021/07/06 06:57:31;;;;;;;4.27;3.97;;;;;;;45.04;23.41;99860.41;126399;1092;102900;-78
2021/07/06 07:00:18;;;;;;;4.63;4.23;;;;;;;45.45;22.90;99846.38;126282;1093;113913;-79
2021/07/06 07:03:06;;;;;;;4.80;4.40;;;;;;;45.76;22.37;99841.39;126376;1093;102964;-79
2021/07/06 07:05:55;;;;;;;4.00;3.70;;;;;;;45.96;21.67;99852.20;126629;1092;102850;-79
2021/07/06 07:08:43;;;;;;;6.53;4.07;;;;;;;46.10;21.27;99846.02;126310;1092;102673;-79
2021/07/06 07:11:30;;;;;;;4.17;3.80;;;;;;;46.35;20.95;99838.27;126496;1092;102863;-79
2021/07/06 07:14:18;;;;;;;4.47;3.90;;;;;;;46.32;20.72;99847.10;126226;1092;113924;-79
2021/07/06 07:17:06;;;;;;;4.23;3.93;;;;;;;46.39;20.45;99849.55;126623;1093;102852;-79
2021/07/06 07:19:53;;;;;;;4.60;4.20;;;;;;;46.49;20.59;99843.88;126216;1092;112872;-79
2021/07/06 07:22:43;;;;;;;4.27;3.87;;;;;;;46.56;20.47;99844.35;126273;1092;102869;-79
2021/07/06 07:25:32;;;;;;;4.30;3.90;;;;;;;46.61;19.82;99844.27;126207;1093;113937;-79
2021/07/06 07:28:20;;;;;;;3.80;3.50;;;;;;;46.51;19.92;99840.86;126348;1093;102927;-78
2021/07/06 07:31:08;;;;;;;4.47;3.80;;;;;;;46.83;19.67;99846.46;126249;1093;114219;-78
2021/07/06 07:33:56;;;;;;;4.17;3.80;;;;;;;47.08;19.82;99838.92;126383;1092;102845;-78
2021/07/06 07:36:44;;;;;;;4.07;3.77;;;;;;;47.07;19.36;99849.15;126201;1093;113969;-78
2021/07/06 07:39:37;;;;;;;4.33;3.93;;;;;;;46.66;18.54;99841.44;126369;1092;102958;-78
2021/07/06 07:42:24;;;;;;;4.37;3.97;;;;;;;46.56;19.01;99849.05;126261;1092;113938;-79
2021/07/06 07:45:12;;;;;;;4.17;3.83;;;;;;;46.48;18.81;99845.00;126371;1092;102847;-78
2021/07/06 07:48:00;;;;;;;4.67;4.03;;;;;;;46.48;18.84;99853.27;126379;1092;102857;-78
2021/07/06 07:50:48;;;;;;;5.30;4.00;;;;;;;46.20;18.93;99857.76;126225;1092;113860;-78
2021/07/06 07:53:36;;;;;;;5.43;4.00;;;;;;;46.19;19.32;99860.81;126330;1092;102868;-78
2021/07/06 07:56:24;;;;;;;5.17;3.80;;;;;;;45.94;18.81;99857.18;126265;1092;113771;-77
2021/07/06 07:59:11;;;;;;;6.90;4.50;;;;;;;45.78;19.12;99866.72;126365;1093;102980;-78
2021/07/06 08:01:59;;;;;;;4.17;3.77;;;;;;;45.51;18.30;99866.42;126305;1091;113819;-77
2021/07/06 08:04:46;;;;;;;4.30;3.83;;;;;;;44.85;19.00;99873.17;126209;1092;103031;-77
2021/07/06 08:07:34;;;;;;;4.37;3.90;;;;;;;44.51;19.15;99882.15;126252;1093;113832;-77
2021/07/06 08:10:21;;;;;;;4.60;3.67;;;;;;;44.17;18.99;99882.00;126355;1092;102849;-77
2021/07/06 08:13:09;;;;;;;4.30;3.90;;;;;;;43.97;19.42;99879.25;126327;1093;114251;-77
2021/07/06 08:15:57;;;;;;;4.63;4.00;;;;;;;43.86;19.65;99880.39;126324;1093;102875;-78
2021/07/06 08:18:45;;;;;;;4.13;3.83;;;;;;;43.69;20.23;99881.52;126333;1093;114065;-77
2021/07/06 08:21:35;;;;;;;6.53;4.03;;;;;;;43.56;20.01;99871.05;126370;1093;103512;-78
2021/07/06 08:24:23;;;;;;;3.93;3.60;;;;;;;43.39;20.02;99870.50;126360;1093;103021;-78
2021/07/06 08:27:10;;;;;;;4.90;4.45;;;;;;;43.19;19.73;99871.29;126265;1092;102901;-78
2021/07/06 08:29:58;;;;;;;5.07;3.70;;;;;;;42.96;19.69;99872.63;126316;1092;103338;-78
2021/07/06 08:32:45;;;;;;;4.40;3.90;;;;;;;42.89;20.22;99863.82;126252;1092;114788;-78
2021/07/06 08:35:34;;;;;;;5.00;4.00;;;;;;;42.59;20.34;99863.73;126413;1093;102879;-78
2021/07/06 08:38:22;;;;;;;4.70;4.00;;;;;;;42.28;20.28;99871.79;126327;1091;113845;-77
2021/07/06 08:41:12;;;;;;;5.70;4.60;;;;;;;42.34;20.90;99873.45;126351;1093;102922;-77
2021/07/06 08:43:59;;;;;;;6.37;4.47;;;;;;;42.43;20.55;99874.60;126276;1091;113796;-77
2021/07/06 08:46:49;;;;;;;5.50;4.83;;;;;;;42.27;20.82;99875.63;126371;1093;102910;-77
2021/07/06 08:49:40;;;;;;;5.43;4.70;;;;;;;42.00;20.78;99877.62;126312;1093;114714;-76
2021/07/06 08:52:30;;;;;;;7.00;4.27;;;;;;;42.06;21.03;99890.28;126434;1093;102878;-78
2021/07/06 08:55:19;;;;;;;4.60;4.20;;;;;;;41.59;21.52;99877.31;126254;1093;113944;-78
2021/07/06 08:58:07;;;;;;;5.93;4.20;;;;;;;41.57;21.82;99876.75;126611;1093;102858;-77
2021/07/06 09:00:55;;;;;;;8.80;3.90;;;;;;;41.40;21.12;99878.80;126319;1092;114116;-77
2021/07/06 09:04:01;;;;;;;5.73;3.80;;;;;;;41.45;21.45;99887.05;126359;1093;102892;-77
2021/07/06 09:06:54;;;;;;;5.50;3.60;;;;;;;41.13;21.12;99885.10;126322;1092;103003;-77
2021/07/06 09:09:42;;;;;;;5.73;4.00;;;;;;;40.73;20.64;99893.64;126393;1092;103009;-77
2021/07/06 09:12:34;;;;;;;4.27;3.43;;;;;;;40.36;20.98;99893.42;126360;1093;102916;-77
2021/07/06 09:15:25;;;;;;;4.60;3.70;;;;;;;40.25;21.71;99889.74;126231;1092;113763;-77
2021/07/06 09:18:15;;;;;;;4.07;3.30;;;;;;;40.31;21.02;99891.45;126460;1093;103007;-77
2021/07/06 09:21:07;;;;;;;4.60;2.90;;;;;;;40.09;21.17;99891.43;126578;1093;113801;-77
2021/07/06 09:23:55;;;;;;;3.83;2.80;;;;;;;40.09;21.93;99887.88;126312;1091;103001;-77
2021/07/06 09:26:42;;;;;;;5.23;3.47;;;;;;;40.16;21.40;99886.59;126502;1093;113905;-77
2021/07/06 09:29:30;;;;;;;3.53;3.23;;;;;;;39.99;20.78;99891.27;126389;1092;102870;-77
2021/07/06 09:32:23;;;;;;;3.67;3.33;;;;;;;39.91;20.98;99880.75;126292;1093;112940;-77
2021/07/06 09:35:26;;;;;;;3.40;3.10;;;;;;;39.91;21.21;99883.48;126377;1093;103090;-77
2021/07/06 09:38:13;;;;;;;3.37;3.07;;;;;;;39.88;21.73;99884.81;126426;1092;113837;-77
2021/07/06 09:41:00;;;;;;;3.20;2.93;;;;;;;39.84;21.50;99891.83;126356;1093;102882;-77
2021/07/06 09:43:48;;;;;;;3.27;2.90;;;;;;;39.86;21.69;99877.95;126456;1092;114086;-77
2021/07/06 09:46:46;;;;;;;3.23;3.03;;;;;;;39.79;21.58;99882.74;126417;1091;103003;-78
2021/07/06 09:49:52;;;;;;;3.08;2.78;;;;;;;39.87;21.56;99885.06;126262;1093;112839;-78
2021/07/06 09:52:41;;;;;;;4.23;2.77;;;;;;;39.63;21.28;99889.86;126485;1093;102933;-77
2021/07/06 09:55:31;;;;;;;2.83;2.60;;;;;;;39.36;21.12;99881.48;126243;1092;114187;-76
2021/07/06 09:58:19;;;;;;;5.07;2.70;;;;;;;39.36;21.20;99878.75;126579;1093;102937;-77
2021/07/06 10:01:07;;;;;;;3.10;2.80;;;;;;;39.01;21.47;99876.17;126592;1093;103006;-77
2021/07/06 10:03:57;;;;;;;2.37;2.17;;;;;;;39.00;21.13;99874.52;126200;1093;113755;-77
2021/07/06 10:06:45;;;;;;;2.93;2.73;;;;;;;38.82;21.29;99882.90;126358;1092;102868;-77
2021/07/06 10:09:35;;;;;;;3.00;2.70;;;;;;;38.73;21.70;99874.26;126190;1093;113868;-77
2021/07/06 10:12:23;;;;;;;2.70;2.50;;;;;;;38.89;22.35;99876.22;126301;1092;102877;-77
2021/07/06 10:15:12;;;;;;;3.03;2.70;;;;;;;38.94;21.95;99876.30;126207;1093;113980;-77
2021/07/06 10:18:06;;;;;;;4.03;2.60;;;;;;;38.65;21.43;99872.76;126625;1092;102851;-77
2021/07/06 10:20:54;;;;;;;3.00;2.80;;;;;;;38.51;22.20;99873.23;126264;1093;114189;-77
2021/07/06 10:23:44;;;;;;;3.20;2.90;;;;;;;38.50;22.63;99879.76;126260;1093;102868;-78
2021/07/06 10:26:34;;;;;;;3.50;2.80;;;;;;;38.46;22.54;99868.52;126392;1093;113909;-78
2021/07/06 10:29:41;;;;;;;3.37;2.60;;;;;;;38.37;22.71;99876.22;126606;1092;102930;-78
2021/07/06 10:32:45;;;;;;;4.93;2.75;;;;;;;38.22;22.88;99864.16;126279;1092;113813;-77
2021/07/06 10:35:53;;;;;;;2.83;2.63;;;;;;;38.18;22.92;99871.98;126237;1092;102850;-77
2021/07/06 10:38:44;;;;;;;2.93;2.73;;;;;;;38.06;23.13;99863.82;126235;1092;113828;-78
2021/07/06 10:41:34;;;;;;;4.03;3.13;;;;;;;37.82;23.25;99856.71;126464;1093;102879;-78
2021/07/06 10:44:32;;;;;;;3.27;3.00;;;;;;;37.45;23.45;99859.61;126488;1093;114000;-78
2021/07/06 10:47:37;;;;;;;4.13;3.40;;;;;;;37.31;23.52;99865.48;126334;1093;102951;-78
2021/07/06 10:50:43;;;;;;;3.43;3.00;;;;;;;37.06;23.80;99869.17;126276;1093;114063;-78
2021/07/06 10:53:32;;;;;;;3.33;3.03;;;;;;;36.84;24.23;99865.31;126601;1092;103036;-78
2021/07/06 10:56:32;;;;;;;2.97;2.67;;;;;;;36.66;24.78;99860.70;126168;1092;114253;-78
2021/07/06 10:59:30;;;;;;;3.73;3.43;;;;;;;36.50;24.98;99864.88;126369;1093;102923;-78
2021/07/06 11:02:26;;;;;;;3.27;2.97;;;;;;;36.32;24.75;99862.16;126224;1091;114035;-77
2021/07/06 11:05:14;;;;;;;3.63;3.33;;;;;;;36.09;25.29;99864.66;126358;1093;102976;-77
2021/07/06 11:08:02;;;;;;;2.87;2.40;;;;;;;35.99;25.28;99863.30;126183;1093;114601;-78
2021/07/06 11:10:50;;;;;;;3.73;3.07;;;;;;;35.81;25.07;99860.53;126340;1093;102814;-77
2021/07/06 11:13:38;;;;;;;3.10;2.90;;;;;;;35.58;25.35;99865.75;126226;1093;114214;-77
2021/07/06 11:16:36;;;;;;;3.53;2.93;;;;;;;35.37;25.40;99869.64;126364;1093;102868;-77
2021/07/06 11:19:41;;;;;;;3.23;2.93;;;;;;;35.16;26.03;99867.26;126328;1093;102982;-77
2021/07/06 11:22:50;;;;;;;3.10;2.87;;;;;;;34.93;25.71;99865.11;126334;1093;102301;-77
2021/07/06 11:25:41;;;;;;;3.33;3.07;;;;;;;34.67;26.05;99864.17;126534;1093;102988;-78
2021/07/06 11:28:29;;;;;;;3.25;2.95;;;;;;;34.52;25.81;99860.90;126211;1091;113720;-77
2021/07/06 11:31:20;;;;;;;3.13;2.83;;;;;;;34.13;26.77;99859.95;126410;1093;102877;-77
2021/07/06 11:34:19;;;;;;;3.40;3.10;;;;;;;33.94;26.63;99855.41;126177;1093;113943;-77
2021/07/06 11:37:13;;;;;;;3.80;3.03;;;;;;;33.84;27.34;99857.66;126370;1093;102847;-77
2021/07/06 11:40:01;;;;;;;3.30;3.00;;;;;;;33.71;27.39;99852.25;126095;1092;113765;-77
2021/07/06 11:42:49;;;;;;;3.57;3.13;;;;;;;33.62;28.12;99843.53;126325;1091;102887;-77
2021/07/06 11:45:37;;;;;;;3.97;3.33;;;;;;;33.64;27.86;99842.28;126260;1093;113849;-77
2021/07/06 11:48:28;;;;;;;3.10;2.90;;;;;;;33.44;28.31;99846.03;126424;1092;103003;-77
2021/07/06 11:51:21;;;;;;;3.57;3.27;;;;;;;33.30;27.91;99848.68;126206;1092;114198;-77
2021/07/06 11:54:13;;;;;;;3.37;3.07;;;;;;;33.12;28.22;99843.05;126355;1093;102999;-77
2021/07/06 11:57:05;;;;;;;3.77;3.40;;;;;;;33.04;28.00;99845.95;126229;1093;114148;-77
2021/07/06 11:59:54;;;;;;;3.10;2.80;;;;;;;33.04;28.58;99846.78;126588;1092;102998;-76
2021/07/06 12:02:42;;;;;;;4.80;3.50;;;;;;;32.87;28.61;99844.66;126200;1093;114038;-76
2021/07/06 12:05:31;;;;;;;4.00;3.23;;;;;;;32.82;28.72;99841.71;126601;1093;103349;-76
2021/07/06 12:08:24;;;;;;;3.40;3.10;;;;;;;32.77;28.78;99831.50;126233;1093;114025;-76
2021/07/06 12:11:26;;;;;;;4.00;3.70;;;;;;;32.63;29.23;99830.61;126381;1093;102918;-77
2021/07/06 12:14:19;;;;;;;3.90;3.50;;;;;;;32.58;29.48;99834.96;126227;1093;113954;-76
2021/07/06 12:17:07;;;;;;;6.93;3.20;;;;;;;32.60;29.67;99833.72;126364;1092;102985;-76
2021/07/06 12:20:00;;;;;;;3.40;3.10;;;;;;;32.61;29.63;99826.45;126358;1092;102888;-77
2021/07/06 12:22:57;;;;;;;3.67;3.37;;;;;;;32.60;29.76;99825.63;126335;1092;102868;-76
2021/07/06 12:25:46;;;;;;;3.70;3.40;;;;;;;32.67;29.60;99809.43;126567;1093;102869;-77
2021/07/06 12:28:34;;;;;;;5.93;3.43;;;;;;;32.64;29.57;99812.55;126147;1092;113950;-77
2021/07/06 12:31:30;;;;;;;3.60;3.20;;;;;;;32.57;29.44;99814.40;126395;1093;102979;-78
2021/07/06 12:34:18;;;;;;;4.03;3.03;;;;;;;32.56;29.75;99813.56;126281;1092;114023;-78
2021/07/06 12:37:10;;;;;;;3.30;3.00;;;;;;;32.62;29.29;99814.62;126384;1093;103106;-78
2021/07/06 12:40:09;;;;;;;3.40;3.10;;;;;;;32.56;29.12;99799.23;126500;1093;114000;-78
2021/07/06 12:42:58;;;;;;;3.60;3.30;;;;;;;32.41;29.13;99802.08;126384;1093;102855;-78
2021/07/06 12:45:47;;;;;;;3.27;3.00;;;;;;;32.32;29.41;99814.93;126307;1093;113770;-78
2021/07/06 12:48:35;;;;;;;3.40;3.10;;;;;;;32.32;29.90;99808.70;126360;1093;102993;-78
2021/07/06 12:51:24;;;;;;;3.23;2.63;;;;;;;32.42;30.06;99807.28;126430;1092;113842;-78
2021/07/06 12:54:12;;;;;;;3.90;3.60;;;;;;;32.51;29.83;99804.42;126385;1093;102957;-78